Time;durP1;ratioP1;P1;durP2;ratioP2;P2;SDS_P1;SDS_P2;PMS_P1;PMS_P2;Temp;Humidity;BMP_temperature;BMP_pressure;BME280_temperature;BME280_humidity;BME280_pressure;Samples;Min_cycle;Max_cycle;Signal;HPM_P1;HPM_P2
2021/11/02 00:01:43;;;;;;;41.47;18.65;;;6.50;99.90;;;;;;5026374;28;20046;-75
2021/11/02 00:04:10;;;;;;;37.53;18.13;;;6.60;99.90;;;;;;5024865;28;20140;-75
2021/11/02 00:06:37;;;;;;;42.22;18.88;;;6.70;99.90;;;;;;5027066;28;20060;-75
2021/11/02 00:09:10;;;;;;;44.17;17.63;;;6.70;99.90;;;;;;5008602;28;20077;-75
2021/11/02 00:11:38;;;;;;;35.22;16.40;;;6.70;99.90;;;;;;5040744;28;20069;-74
2021/11/02 00:14:09;;;;;;;41.35;17.13;;;6.70;99.90;;;;;;5008369;28;20060;-75
2021/11/02 00:16:37;;;;;;;38.88;18.67;;;6.80;99.90;;;;;;5027586;28;20123;-77
2021/11/02 00:19:06;;;;;;;38.10;17.55;;;6.80;99.90;;;;;;5009653;28;20218;-75
2021/11/02 00:21:35;;;;;;;38.53;16.33;;;6.70;99.90;;;;;;5009550;28;20041;-76
2021/11/02 00:24:15;;;;;;;37.42;17.42;;;6.70;99.90;;;;;;5026015;28;20064;-74
2021/11/02 00:26:43;;;;;;;36.45;15.68;;;6.40;99.90;;;;;;5025901;28;20049;-75
2021/11/02 00:29:10;;;;;;;45.33;17.35;;;6.40;99.90;;;;;;5026346;28;20132;-75
2021/11/02 00:31:39;;;;;;;36.33;17.83;;;6.40;99.90;;;;;;5049170;28;20072;-75
2021/11/02 00:34:06;;;;;;;35.13;15.48;;;6.30;99.90;;;;;;5025579;28;20312;-74
2021/11/02 00:36:33;;;;;;;31.77;15.90;;;6.20;99.90;;;;;;5026805;28;20128;-77
2021/11/02 00:39:01;;;;;;;34.70;15.80;;;6.30;99.90;;;;;;5025594;28;20477;-75
2021/11/02 00:41:28;;;;;;;33.08;16.17;;;6.30;99.90;;;;;;5024550;28;20045;-77
2021/11/02 00:43:56;;;;;;;40.72;16.35;;;6.30;99.90;;;;;;5025300;28;20046;-76
2021/11/02 00:46:31;;;;;;;37.15;16.23;;;6.30;99.90;;;;;;5026084;28;20095;-76
2021/11/02 00:48:59;;;;;;;33.03;15.65;;;6.40;99.90;;;;;;5020181;28;20223;-74
2021/11/02 00:51:27;;;;;;;36.00;17.17;;;6.50;99.90;;;;;;5026936;28;20053;-77
2021/11/02 00:53:56;;;;;;;31.27;16.00;;;6.40;99.90;;;;;;5008951;28;20064;-75
2021/11/02 00:56:23;;;;;;;41.78;16.45;;;6.30;99.90;;;;;;5026798;28;20057;-76
2021/11/02 00:58:50;;;;;;;38.42;15.40;;;6.30;99.90;;;;;;5048146;28;20049;-74
2021/11/02 01:01:17;;;;;;;40.95;16.30;;;6.20;99.90;;;;;;5026756;28;20126;-74
2021/11/02 01:03:44;;;;;;;34.13;15.52;;;6.20;99.90;;;;;;5007248;28;20065;-74
2021/11/02 01:06:11;;;;;;;32.83;15.43;;;6.30;99.90;;;;;;5022376;28;20532;-74
2021/11/02 01:08:38;;;;;;;32.40;14.68;;;6.30;99.90;;;;;;5015211;28;20049;-74
2021/11/02 01:11:05;;;;;;;33.47;14.45;;;6.20;99.90;;;;;;5018664;28;20049;-75
2021/11/02 01:13:33;;;;;;;31.42;14.27;;;6.30;99.90;;;;;;5025997;28;20526;-75
2021/11/02 01:16:01;;;;;;;34.30;14.45;;;6.30;99.90;;;;;;5023437;28;20053;-75
2021/11/02 01:18:27;;;;;;;35.47;14.75;;;6.30;99.90;;;;;;5026458;28;20068;-74
2021/11/02 01:20:54;;;;;;;29.85;13.27;;;6.10;99.90;;;;;;5008568;28;20136;-75
2021/11/02 01:23:21;;;;;;;29.83;13.65;;;6.10;99.90;;;;;;5007326;28;20056;-76
2021/11/02 01:25:48;;;;;;;23.23;12.90;;;6.00;99.90;;;;;;5008015;28;20049;-74
2021/11/02 01:28:16;;;;;;;26.77;13.73;;;6.00;99.90;;;;;;5026240;28;20058;-76
2021/11/02 01:30:45;;;;;;;27.92;13.77;;;6.10;99.90;;;;;;5023969;28;20056;-75
2021/11/02 01:33:15;;;;;;;30.10;12.82;;;6.10;99.90;;;;;;5021363;28;20211;-75
2021/11/02 01:35:47;;;;;;;29.52;12.55;;;6.20;99.90;;;;;;5041979;28;20054;-76
2021/11/02 01:38:19;;;;;;;26.02;12.02;;;6.20;99.90;;;;;;5021531;28;20088;-75
2021/11/02 01:40:47;;;;;;;31.42;13.40;;;6.10;99.90;;;;;;5019054;28;20514;-75
2021/11/02 01:43:15;;;;;;;24.70;12.38;;;6.20;99.90;;;;;;4991987;28;20053;-76
2021/11/02 01:45:44;;;;;;;37.53;13.05;;;6.00;99.90;;;;;;5023272;28;20060;-75
2021/11/02 01:48:17;;;;;;;33.38;13.70;;;5.90;99.90;;;;;;5008348;28;20069;-74
2021/11/02 01:50:45;;;;;;;32.13;13.82;;;5.80;99.90;;;;;;4991042;28;20065;-75
2021/11/02 01:53:13;;;;;;;26.15;13.25;;;5.70;99.90;;;;;;5007596;28;20145;-76
2021/11/02 01:55:42;;;;;;;32.17;13.02;;;5.70;99.90;;;;;;5008013;28;20041;-75
2021/11/02 01:58:14;;;;;;;26.00;12.00;;;5.70;99.90;;;;;;5005743;28;20053;-75
2021/11/02 02:00:47;;;;;;;31.30;12.70;;;5.60;99.90;;;;;;5007056;28;20436;-75
2021/11/02 02:03:36;;;;;;;29.52;12.48;;;5.50;99.90;;;;;;5007714;28;20509;-75
2021/11/02 02:06:23;;;;;;;33.20;12.57;;;5.40;99.90;;;;;;5007492;28;20053;-75
2021/11/02 02:09:04;;;;;;;40.75;13.48;;;5.40;99.90;;;;;;5016685;28;20053;-77
2021/11/02 02:12:11;;;;;;;33.55;12.93;;;5.40;99.90;;;;;;5020030;28;20046;-76
2021/11/02 02:15:01;;;;;;;34.80;12.32;;;5.40;99.90;;;;;;5004592;28;20050;-74
2021/11/02 02:17:34;;;;;;;32.95;12.52;;;5.40;99.90;;;;;;4986912;28;20082;-75
2021/11/02 02:20:08;;;;;;;29.00;11.73;;;5.50;99.90;;;;;;4988274;28;20116;-75
2021/11/02 02:23:06;;;;;;;26.83;11.95;;;5.50;99.90;;;;;;5020149;28;20050;-75
2021/11/02 02:25:51;;;;;;;27.75;11.90;;;5.50;99.90;;;;;;5023593;28;20453;-75
2021/11/02 02:28:26;;;;;;;26.83;12.10;;;5.60;99.90;;;;;;5023816;28;20061;-76
2021/11/02 02:31:08;;;;;;;33.33;13.32;;;5.70;99.90;;;;;;4999373;28;20149;-76
2021/11/02 02:33:44;;;;;;;28.88;12.30;;;5.80;99.90;;;;;;4998678;28;20136;-75
2021/11/02 02:36:17;;;;;;;31.92;12.60;;;5.90;99.90;;;;;;5026118;28;20073;-75
2021/11/02 02:39:00;;;;;;;33.15;13.98;;;6.00;99.90;;;;;;5057890;28;20119;-77
2021/11/02 02:41:28;;;;;;;37.05;12.05;;;5.90;99.90;;;;;;5027292;28;20053;-75
2021/11/02 02:43:56;;;;;;;32.75;11.25;;;5.90;99.90;;;;;;5015017;28;20062;-76
2021/11/02 02:46:24;;;;;;;30.80;12.82;;;6.00;99.90;;;;;;5002037;28;20152;-75
2021/11/02 02:48:54;;;;;;;24.73;11.80;;;6.10;99.90;;;;;;5044070;28;20060;-75
2021/11/02 02:51:22;;;;;;;29.13;11.55;;;6.10;99.90;;;;;;5027296;28;20049;-74
2021/11/02 02:53:53;;;;;;;23.95;10.68;;;6.00;99.90;;;;;;5025800;28;20076;-74
2021/11/02 02:56:21;;;;;;;23.75;11.50;;;6.10;99.90;;;;;;5026980;28;20104;-74
2021/11/02 02:58:52;;;;;;;25.98;11.48;;;6.00;99.90;;;;;;5026034;28;20120;-74
2021/11/02 03:01:21;;;;;;;30.55;13.07;;;5.80;99.90;;;;;;5025229;28;20056;-77
2021/11/02 03:04:01;;;;;;;31.10;12.75;;;6.00;99.90;;;;;;5043782;28;20519;-76
2021/11/02 03:06:32;;;;;;;29.83;12.63;;;6.00;99.90;;;;;;5010917;28;20135;-74
2021/11/02 03:09:03;;;;;;;28.35;12.52;;;6.00;99.90;;;;;;5038339;28;20152;-75
2021/11/02 03:11:31;;;;;;;32.78;12.73;;;5.80;99.90;;;;;;5008864;28;20054;-78
2021/11/02 03:14:02;;;;;;;34.80;12.90;;;5.70;99.90;;;;;;5026725;28;20557;-77
2021/11/02 03:16:50;;;;;;;40.40;14.65;;;5.80;99.90;;;;;;5016872;28;20058;-78
2021/11/02 03:58:16;;;;;;;36.03;13.02;;;5.00;99.90;;;;;;5026305;28;20057;-78
2021/11/02 04:32:26;;;;;;;60.70;18.65;;;4.50;99.90;;;;;;4981615;28;20136;-77
2021/11/02 04:35:06;;;;;;;66.57;19.08;;;4.60;99.90;;;;;;5014690;28;20495;-78
2021/11/02 04:57:48;;;;;;;59.50;17.95;;;4.80;99.90;;;;;;5046723;28;20076;-77
2021/11/02 05:08:18;;;;;;;45.65;17.73;;;4.80;99.90;;;;;;5025824;28;20060;-76
2021/11/02 05:20:26;;;;;;;62.50;20.17;;;5.40;99.90;;;;;;5053780;28;20132;-77
2021/11/02 05:50:28;;;;;;;;;;;5.60;99.90;;;;;;5026404;28;20550;-77
2021/11/02 05:56:05;;;;;;;50.40;17.77;;;5.70;99.90;;;;;;5045096;28;20135;-78
2021/11/02 05:58:43;;;;;;;53.45;18.92;;;5.40;99.90;;;;;;5005420;28;20040;-77
2021/11/02 06:06:46;;;;;;;52.42;19.10;;;5.40;99.90;;;;;;5045465;28;20049;-77
2021/11/02 06:10:00;;;;;;;53.03;18.15;;;5.60;99.90;;;;;;5015691;28;20542;-77
2021/11/02 06:28:56;;;;;;;51.17;17.80;;;6.00;99.90;;;;;;5045132;28;20779;-76
2021/11/02 06:47:52;;;;;;;;;;;6.10;99.90;;;;;;5034144;28;20067;-77
2021/11/02 06:55:58;;;;;;;42.35;18.60;;;6.00;99.90;;;;;;5044930;28;20060;-76
2021/11/02 07:19:32;;;;;;;48.08;22.35;;;6.40;99.90;;;;;;5027527;28;20240;-77
2021/11/02 08:46:37;;;;;;;11.80;7.68;;;8.50;99.90;;;;;;5047173;28;20045;-76
2021/11/02 08:49:06;;;;;;;12.85;7.65;;;8.50;99.90;;;;;;5047587;28;20431;-77
2021/11/02 08:51:34;;;;;;;10.23;7.15;;;8.50;99.90;;;;;;5047543;28;20045;-77
2021/11/02 08:54:02;;;;;;;18.20;7.38;;;8.60;99.90;;;;;;5012854;28;20047;-77
2021/11/02 08:56:29;;;;;;;12.45;6.85;;;8.70;99.90;;;;;;5029422;28;20045;-77
2021/11/02 08:58:56;;;;;;;12.52;7.25;;;8.80;99.90;;;;;;5023523;28;20550;-77
2021/11/02 09:01:45;;;;;;;11.65;6.72;;;8.90;99.90;;;;;;5038594;28;20098;-77
2021/11/02 09:04:15;;;;;;;10.30;6.97;;;9.00;99.90;;;;;;5009581;28;20049;-77
2021/11/02 09:06:42;;;;;;;10.75;7.40;;;9.10;99.90;;;;;;5027403;28;20147;-77
2021/11/02 09:09:09;;;;;;;8.13;7.05;;;9.00;99.90;;;;;;5038473;28;20040;-77
2021/11/02 09:11:40;;;;;;;11.13;7.03;;;9.10;99.90;;;;;;5036600;28;20063;-77
2021/11/02 09:14:09;;;;;;;7.95;7.15;;;9.40;99.90;;;;;;5013692;28;20041;-77
2021/11/02 09:16:37;;;;;;;12.13;7.80;;;9.80;99.90;;;;;;5012039;28;20057;-77
2021/11/02 09:19:04;;;;;;;10.75;8.32;;;10.00;99.90;;;;;;5047883;28;20072;-77
2021/11/02 09:21:34;;;;;;;10.30;9.20;;;10.40;99.90;;;;;;5028818;28;20052;-77
2021/11/02 09:24:01;;;;;;;12.93;8.75;;;10.50;99.90;;;;;;5028819;28;20057;-77
2021/11/02 09:26:31;;;;;;;9.13;8.23;;;10.80;99.90;;;;;;5028965;28;20487;-77
2021/11/02 09:29:06;;;;;;;9.32;8.48;;;11.00;99.90;;;;;;5027849;28;20045;-76
2021/11/02 09:31:35;;;;;;;9.75;8.32;;;11.10;99.90;;;;;;5040460;28;20150;-76
2021/11/02 09:34:03;;;;;;;9.85;8.95;;;11.00;99.90;;;;;;5046659;28;20063;-76
2021/11/02 09:36:49;;;;;;;9.90;9.00;;;11.00;99.90;;;;;;5028811;28;20060;-76
2021/11/02 09:39:20;;;;;;;9.32;8.52;;;11.00;99.90;;;;;;5045090;28;20053;-76
2021/11/02 09:41:47;;;;;;;9.43;8.52;;;11.00;99.90;;;;;;5028665;28;20055;-76
2021/11/02 09:44:45;;;;;;;10.45;9.48;;;11.10;99.90;;;;;;5029028;28;20037;-76
2021/11/02 09:47:12;;;;;;;10.35;9.40;;;11.00;99.90;;;;;;5028487;28;20075;-77
2021/11/02 09:49:43;;;;;;;10.57;9.68;;;11.10;99.90;;;;;;5028810;28;20484;-76
2021/11/02 09:52:47;;;;;;;10.80;9.90;;;11.00;99.90;;;;;;5028609;28;20051;-77
2021/11/02 09:55:51;;;;;;;10.13;9.23;;;11.00;99.90;;;;;;5044877;28;20425;-77
2021/11/02 09:58:33;;;;;;;10.32;9.27;;;10.90;99.90;;;;;;5028930;28;20114;-77
2021/11/02 10:01:06;;;;;;;11.18;8.88;;;10.90;99.90;;;;;;5042971;28;20464;-77
2021/11/02 10:04:12;;;;;;;9.85;8.95;;;10.90;99.90;;;;;;5026981;28;20053;-76
2021/11/02 10:07:03;;;;;;;9.70;8.52;;;11.00;99.90;;;;;;5028241;28;20103;-76
2021/11/02 10:09:37;;;;;;;9.10;8.35;;;11.10;99.90;;;;;;5045627;28;20049;-76
2021/11/02 10:12:19;;;;;;;9.48;8.80;;;11.40;99.90;;;;;;5032302;28;20426;-76
2021/11/02 10:14:54;;;;;;;11.63;10.43;;;11.70;99.90;;;;;;5046266;28;20503;-77
2021/11/02 10:18:03;;;;;;;10.90;9.95;;;11.70;99.90;;;;;;5045392;28;20049;-76
2021/11/02 10:21:02;;;;;;;10.07;9.32;;;11.90;99.90;;;;;;5046020;28;20072;-75
2021/11/02 10:23:48;;;;;;;11.68;10.75;;;11.80;99.90;;;;;;5027890;28;20056;-77
2021/11/02 10:26:53;;;;;;;12.52;11.73;;;11.90;99.90;;;;;;5026340;28;20050;-76
2021/11/02 10:29:37;;;;;;;11.85;10.85;;;11.90;99.90;;;;;;5036517;28;20053;-76
2021/11/02 10:32:16;;;;;;;11.63;10.80;;;11.90;99.90;;;;;;5044429;28;20052;-76
2021/11/02 10:34:54;;;;;;;10.80;10.20;;;11.70;99.90;;;;;;5027330;28;20535;-73
2021/11/02 10:38:02;;;;;;;10.25;9.35;;;11.50;99.90;;;;;;5029372;28;20049;-73
2021/11/02 10:40:31;;;;;;;;;;;11.50;99.90;;;;;;5022442;28;20061;-72
2021/11/02 10:43:10;;;;;;;10.10;9.13;;;11.50;99.90;;;;;;5045027;28;20217;-71
2021/11/02 10:45:52;;;;;;;12.20;10.55;;;11.60;99.90;;;;;;5045489;28;20045;-70
2021/11/02 10:48:44;;;;;;;11.13;10.10;;;11.80;99.90;;;;;;5024452;28;20538;-70
2021/11/02 10:51:26;;;;;;;10.43;9.48;;;11.70;99.90;;;;;;5043518;28;20432;-71
2021/11/02 10:54:16;;;;;;;9.85;8.25;;;11.60;99.90;;;;;;5045052;28;20488;-70
2021/11/02 10:57:11;;;;;;;9.85;9.02;;;11.40;99.90;;;;;;5040218;28;20054;-71
2021/11/02 10:59:43;;;;;;;13.07;9.68;;;11.20;99.90;;;;;;5025673;28;20049;-70
2021/11/02 11:02:27;;;;;;;9.70;8.77;;;11.10;99.90;;;;;;5040006;28;20052;-71
2021/11/02 11:04:59;;;;;;;11.85;8.98;;;11.00;99.90;;;;;;5031336;28;20053;-71
2021/11/02 11:07:43;;;;;;;10.50;9.48;;;11.00;99.90;;;;;;5031488;28;20458;-70
2021/11/02 11:10:15;;;;;;;9.37;8.40;;;10.90;99.90;;;;;;5053442;28;20060;-70
2021/11/02 11:12:51;;;;;;;14.38;10.15;;;10.90;99.90;;;;;;5049123;28;20059;-70
2021/11/02 11:15:18;;;;;;;13.38;9.07;;;10.90;99.90;;;;;;5048466;28;20053;-71
2021/11/02 11:17:50;;;;;;;10.48;9.48;;;10.90;99.90;;;;;;5048243;28;20082;-71
2021/11/02 11:20:19;;;;;;;10.05;9.05;;;10.90;99.90;;;;;;5049525;28;20061;-70
2021/11/02 11:22:49;;;;;;;11.15;9.43;;;11.00;99.90;;;;;;5049472;28;20651;-74
2021/11/02 11:25:45;;;;;;;9.90;8.90;;;11.10;99.90;;;;;;5014923;28;20411;-74
2021/11/02 11:28:18;;;;;;;11.40;10.23;;;11.20;99.90;;;;;;5049326;28;20049;-75
2021/11/02 11:30:46;;;;;;;11.18;10.27;;;11.30;99.90;;;;;;5045307;28;20056;-73
2021/11/02 11:33:15;;;;;;;14.10;10.82;;;11.30;99.90;;;;;;5014833;28;20045;-74
2021/11/02 11:35:44;;;;;;;11.45;10.20;;;11.20;99.90;;;;;;5048933;28;20049;-75
2021/11/02 11:38:13;;;;;;;13.05;9.25;;;11.20;99.90;;;;;;5030267;28;20423;-75
2021/11/02 11:40:43;;;;;;;11.38;9.93;;;11.10;99.90;;;;;;5048567;28;20051;-75
2021/11/02 11:43:12;;;;;;;12.15;10.85;;;11.30;99.90;;;;;;5049091;28;20060;-74
2021/11/02 11:45:42;;;;;;;11.95;10.85;;;11.50;99.90;;;;;;5048360;28;20049;-75
2021/11/02 11:48:24;;;;;;;11.05;10.00;;;11.60;99.90;;;;;;5048289;28;20530;-75
2021/11/02 11:50:59;;;;;;;11.57;10.63;;;11.70;99.90;;;;;;5028232;28;20427;-71
2021/11/02 11:53:27;;;;;;;10.95;10.25;;;11.90;99.90;;;;;;5048618;28;20057;-72
2021/11/02 11:56:07;;;;;;;11.52;10.20;;;12.10;99.90;;;;;;5046255;28;20315;-73
2021/11/02 11:58:45;;;;;;;12.05;10.95;;;12.30;99.90;;;;;;5048480;28;20123;-71
2021/11/02 12:01:42;;;;;;;13.38;12.07;;;12.40;99.90;;;;;;5055728;28;20263;-71
2021/11/02 12:04:19;;;;;;;11.88;11.05;;;12.30;99.90;;;;;;5052299;28;20526;-71
2021/11/02 12:06:55;;;;;;;12.45;11.00;;;12.10;99.90;;;;;;5016121;28;20059;-72
2021/11/02 12:09:23;;;;;;;12.32;11.15;;;11.90;99.90;;;;;;5047790;28;20059;-72
2021/11/02 12:11:50;;;;;;;11.07;10.27;;;11.90;99.90;;;;;;5012948;28;20106;-71
2021/11/02 12:14:27;;;;;;;11.20;10.27;;;11.80;99.90;;;;;;5051846;28;20068;-72
2021/11/02 12:16:59;;;;;;;12.38;11.48;;;11.90;99.90;;;;;;5049893;28;20255;-71
2021/11/02 12:19:34;;;;;;;12.90;11.93;;;11.80;99.90;;;;;;5028783;28;20092;-71
2021/11/02 12:22:09;;;;;;;12.82;11.70;;;11.80;99.90;;;;;;5029590;28;20533;-71
2021/11/02 12:24:42;;;;;;;12.32;11.25;;;11.90;99.90;;;;;;5027968;28;20102;-71
2021/11/02 12:27:20;;;;;;;12.75;11.45;;;12.20;99.90;;;;;;5048500;28;20060;-72
2021/11/02 12:29:49;;;;;;;12.65;11.32;;;12.40;99.90;;;;;;5023023;28;20500;-72
2021/11/02 12:32:18;;;;;;;12.27;11.35;;;12.50;99.90;;;;;;5026360;28;20049;-73
2021/11/02 12:35:05;;;;;;;11.40;10.60;;;12.50;99.90;;;;;;5047162;28;20102;-72
2021/11/02 12:37:35;;;;;;;11.00;10.38;;;12.40;99.90;;;;;;5009839;28;20049;-71
2021/11/02 12:40:20;;;;;;;12.15;11.18;;;12.30;99.90;;;;;;5046784;28;20050;-72
2021/11/02 12:42:59;;;;;;;12.02;10.93;;;12.10;99.90;;;;;;5027831;28;20057;-74
2021/11/02 12:45:34;;;;;;;11.77;10.82;;;12.00;99.90;;;;;;5027737;28;20096;-72
2021/11/02 12:48:06;;;;;;;11.98;11.18;;;12.00;99.90;;;;;;5017982;28;20053;-71
2021/11/02 12:50:37;;;;;;;13.95;11.40;;;11.90;99.90;;;;;;5047935;28;20045;-72
2021/11/02 12:53:05;;;;;;;12.82;10.88;;;11.90;99.90;;;;;;5047991;28;20511;-72
2021/11/02 12:55:34;;;;;;;12.55;11.40;;;11.90;99.90;;;;;;5047723;28;20048;-72
2021/11/02 12:58:10;;;;;;;12.10;10.90;;;11.90;99.90;;;;;;5028549;28;20061;-73
2021/11/02 13:00:51;;;;;;;11.63;10.48;;;11.90;99.90;;;;;;5047379;28;20049;-72
2021/11/02 13:03:25;;;;;;;11.85;10.90;;;11.70;99.90;;;;;;5010500;28;20143;-72
2021/11/02 13:06:02;;;;;;;11.02;10.02;;;11.50;99.90;;;;;;5028461;28;20072;-72
2021/11/02 13:08:35;;;;;;;10.95;9.95;;;11.40;99.90;;;;;;5015161;28;20094;-72
2021/11/02 13:11:11;;;;;;;11.48;10.63;;;11.30;99.90;;;;;;5049575;28;20056;-71
2021/11/02 13:14:11;;;;;;;11.10;10.40;;;11.20;99.90;;;;;;5052092;28;20425;-72
2021/11/02 13:16:59;;;;;;;11.43;10.55;;;11.20;99.90;;;;;;5016250;28;20049;-72
2021/11/02 13:20:02;;;;;;;11.00;10.10;;;11.30;99.90;;;;;;5032556;28;20232;-71
2021/11/02 13:22:29;;;;;;;11.48;10.35;;;11.20;99.90;;;;;;4972766;28;20503;-73
2021/11/02 13:25:12;;;;;;;14.43;10.57;;;11.20;99.90;;;;;;5039428;28;20080;-72
2021/11/02 13:27:47;;;;;;;11.95;10.93;;;11.40;99.90;;;;;;5031151;28;20041;-73
2021/11/02 13:30:33;;;;;;;13.52;12.05;;;11.50;99.90;;;;;;5024172;28;20049;-72
2021/11/02 13:33:15;;;;;;;11.52;10.40;;;11.60;99.90;;;;;;5029661;28;20324;-71
2021/11/02 13:36:01;;;;;;;13.48;12.27;;;11.60;99.90;;;;;;5029456;28;20056;-73
2021/11/02 13:38:38;;;;;;;11.90;11.00;;;11.60;99.90;;;;;;5028775;28;20126;-71
2021/11/02 13:41:25;;;;;;;12.32;11.20;;;11.70;99.90;;;;;;5045990;28;20065;-72
2021/11/02 13:44:00;;;;;;;30.23;21.50;;;11.80;99.90;;;;;;5029779;28;20503;-72
2021/11/02 13:46:31;;;;;;;14.65;13.32;;;11.90;99.90;;;;;;5046666;28;20473;-72
2021/11/02 13:48:58;;;;;;;13.25;12.05;;;11.80;99.90;;;;;;5028101;28;20076;-73
2021/11/02 13:51:26;;;;;;;12.98;11.85;;;11.70;99.90;;;;;;5028522;28;20045;-70
2021/11/02 13:53:53;;;;;;;15.43;12.32;;;11.60;99.90;;;;;;5028133;28;20052;-73
2021/11/02 13:56:26;;;;;;;12.98;11.68;;;11.40;99.90;;;;;;5026465;28;20271;-73
2021/11/02 13:58:55;;;;;;;12.50;11.60;;;11.40;99.90;;;;;;5020565;28;20503;-72
2021/11/02 14:01:48;;;;;;;11.63;10.65;;;11.40;99.90;;;;;;5027214;28;20507;-72
2021/11/02 14:04:17;;;;;;;13.15;11.30;;;11.30;99.90;;;;;;5027535;28;20049;-72
2021/11/02 14:06:48;;;;;;;11.45;10.50;;;11.30;99.90;;;;;;5027536;28;20048;-71
2021/11/02 14:09:23;;;;;;;11.98;10.95;;;11.30;99.90;;;;;;5049476;28;20434;-71
2021/11/02 14:11:50;;;;;;;24.17;18.92;;;11.40;99.90;;;;;;5044512;28;20053;-71
2021/11/02 14:14:34;;;;;;;15.45;13.88;;;11.40;99.90;;;;;;5045761;28;20091;-72
2021/11/02 14:17:21;;;;;;;16.52;14.88;;;11.30;99.90;;;;;;5045973;28;20053;-72
2021/11/02 14:19:53;;;;;;;12.32;11.32;;;11.30;99.90;;;;;;5042788;28;20608;-71
2021/11/02 14:22:42;;;;;;;12.25;11.25;;;11.10;99.90;;;;;;5010258;28;20100;-71
2021/11/02 14:25:15;;;;;;;12.77;11.50;;;11.00;99.90;;;;;;5027375;28;20056;-73
2021/11/02 14:27:44;;;;;;;12.85;11.70;;;11.00;99.90;;;;;;5028196;28;20315;-72
2021/11/02 14:30:31;;;;;;;14.63;12.77;;;11.00;99.90;;;;;;5035218;28;20354;-72
2021/11/02 14:33:19;;;;;;;11.90;11.00;;;11.10;99.90;;;;;;5039434;28;20306;-73
2021/11/02 14:35:51;;;;;;;11.93;10.98;;;11.10;99.90;;;;;;5030292;28;20061;-72
2021/11/02 14:38:20;;;;;;;14.02;12.05;;;11.10;99.90;;;;;;5016256;28;20075;-72
2021/11/02 14:41:19;;;;;;;13.70;12.32;;;11.10;99.90;;;;;;5031315;28;20523;-72
2021/11/02 14:43:45;;;;;;;11.85;10.68;;;10.90;99.90;;;;;;5004111;28;20053;-74
2021/11/02 14:46:20;;;;;;;12.52;11.43;;;10.90;99.90;;;;;;5021329;28;20056;-72
2021/11/02 14:48:49;;;;;;;13.27;11.70;;;10.90;99.90;;;;;;5021720;28;20104;-72
2021/11/02 14:51:20;;;;;;;12.55;11.38;;;10.90;99.90;;;;;;5020603;28;20050;-72
2021/11/02 14:53:52;;;;;;;13.50;12.43;;;10.90;99.90;;;;;;5022972;28;20061;-72
2021/11/02 14:56:18;;;;;;;12.98;11.98;;;10.90;99.90;;;;;;5021185;28;20053;-72
2021/11/02 14:58:53;;;;;;;12.73;11.82;;;10.90;99.90;;;;;;5044618;28;20329;-72
2021/11/02 15:01:29;;;;;;;13.25;12.10;;;11.00;99.90;;;;;;5015851;28;20050;-72
2021/11/02 15:04:17;;;;;;;13.18;11.85;;;11.00;99.90;;;;;;5005512;28;20539;-72
2021/11/02 15:06:55;;;;;;;13.00;11.82;;;11.00;99.90;;;;;;5009680;28;20052;-71
2021/11/02 15:09:26;;;;;;;12.55;11.55;;;11.00;99.90;;;;;;5011765;28;20042;-71
2021/11/02 15:11:55;;;;;;;13.45;12.05;;;10.80;99.90;;;;;;5008161;28;20038;-72
2021/11/02 15:14:22;;;;;;;12.80;11.07;;;10.80;99.90;;;;;;5016666;28;20192;-72
2021/11/02 15:16:54;;;;;;;12.90;11.68;;;10.80;99.90;;;;;;5001911;28;20487;-72
2021/11/02 15:19:24;;;;;;;14.32;11.98;;;10.80;99.90;;;;;;5018520;28;20076;-72
2021/11/02 15:21:55;;;;;;;19.65;11.68;;;10.70;99.90;;;;;;5021974;28;20234;-72
2021/11/02 15:24:30;;;;;;;10.73;8.95;;;10.70;99.90;;;;;;5021269;28;20123;-72
2021/11/02 15:27:09;;;;;;;9.68;8.98;;;10.50;99.90;;;;;;5009136;28;20065;-71
2021/11/02 15:29:44;;;;;;;7.90;7.40;;;10.30;99.90;;;;;;5019213;28;20052;-71
2021/11/02 15:32:17;;;;;;;13.15;8.18;;;10.20;99.90;;;;;;5020480;28;20054;-72
2021/11/02 15:34:56;;;;;;;11.27;7.25;;;10.10;99.90;;;;;;5007563;28;20366;-72
2021/11/02 15:37:29;;;;;;;12.80;10.50;;;9.90;99.90;;;;;;4987090;28;20054;-73
2021/11/02 15:40:05;;;;;;;7.32;6.80;;;9.80;99.90;;;;;;5019180;28;20054;-73
2021/11/02 15:42:52;;;;;;;8.00;5.82;;;9.70;99.90;;;;;;5017704;28;20545;-73
2021/11/02 15:45:40;;;;;;;7.93;6.85;;;9.70;99.90;;;;;;5013550;28;20104;-75
2021/11/02 15:48:11;;;;;;;7.88;6.32;;;9.60;99.90;;;;;;5005917;28;20356;-75
2021/11/02 15:50:44;;;;;;;5.72;5.15;;;9.80;99.90;;;;;;5009654;28;20325;-74
2021/11/02 15:53:13;;;;;;;7.85;6.45;;;9.80;99.90;;;;;;5019422;28;20057;-75
2021/11/02 15:55:40;;;;;;;5.78;5.32;;;9.80;99.90;;;;;;5019559;28;20050;-74
2021/11/02 15:58:09;;;;;;;10.10;5.68;;;9.70;99.90;;;;;;4986708;28;20042;-73
2021/11/02 16:00:38;;;;;;;4.95;4.38;;;9.60;99.90;;;;;;5004727;28;20099;-75
2021/11/02 16:03:08;;;;;;;7.15;5.18;;;9.60;99.90;;;;;;5007032;28;20045;-74
2021/11/02 16:05:36;;;;;;;5.93;4.30;;;9.40;99.90;;;;;;5025934;28;20389;-76
2021/11/02 16:08:14;;;;;;;6.00;4.47;;;9.40;99.90;;;;;;5009047;28;20101;-76
2021/11/02 16:10:41;;;;;;;7.20;6.55;;;9.40;99.90;;;;;;5022766;28;20119;-75
2021/11/02 16:13:10;;;;;;;5.57;4.80;;;9.60;99.90;;;;;;5002013;28;20240;-75
2021/11/02 16:15:39;;;;;;;5.55;4.45;;;9.60;99.90;;;;;;5011721;28;20481;-74
2021/11/02 16:18:22;;;;;;;11.35;6.65;;;9.50;99.90;;;;;;5007435;28;20116;-74
2021/11/02 16:20:50;;;;;;;5.80;4.13;;;9.30;99.90;;;;;;5006144;28;20049;-74
2021/11/02 16:23:23;;;;;;;15.48;6.20;;;9.00;99.90;;;;;;5008293;28;20472;-75
2021/11/02 16:25:56;;;;;;;101.15;36.22;;;8.70;99.90;;;;;;5026695;28;20049;-74
2021/11/02 16:28:29;;;;;;;15.77;8.05;;;8.50;99.90;;;;;;5024843;28;20049;-74
2021/11/02 16:31:01;;;;;;;5.00;4.13;;;8.30;99.90;;;;;;5022324;28;20075;-73
2021/11/02 16:33:43;;;;;;;3.08;2.78;;;8.30;99.90;;;;;;4973219;28;20376;-74
2021/11/02 16:36:14;;;;;;;4.97;4.25;;;8.20;99.90;;;;;;4998013;28;20469;-74
2021/11/02 16:38:41;;;;;;;5.90;4.53;;;8.30;99.90;;;;;;5026699;28;20295;-73
2021/11/02 16:41:28;;;;;;;5.30;4.53;;;8.30;99.90;;;;;;5025003;28;20087;-71
2021/11/02 16:44:03;;;;;;;7.63;6.13;;;8.50;99.90;;;;;;5024121;28;20119;-74
2021/11/02 16:46:35;;;;;;;5.93;4.85;;;8.50;99.90;;;;;;5008140;28;20799;-72
2021/11/02 16:49:05;;;;;;;12.15;7.32;;;8.50;99.90;;;;;;5025213;28;20049;-71
2021/11/02 16:51:44;;;;;;;8.05;4.93;;;8.60;99.90;;;;;;5026158;28;20054;-73
2021/11/02 16:54:13;;;;;;;4.93;3.08;;;8.40;99.90;;;;;;5026597;28;20315;-73
2021/11/02 16:57:12;;;;;;;6.43;4.35;;;8.30;99.90;;;;;;5022354;28;20046;-72
2021/11/02 16:59:39;;;;;;;3.22;2.92;;;8.20;99.90;;;;;;4987246;28;20052;-73
2021/11/02 17:02:30;;;;;;;4.95;3.53;;;8.20;99.90;;;;;;5007355;28;20119;-72
2021/11/02 17:05:10;;;;;;;17.45;12.15;;;8.30;99.90;;;;;;5025302;28;20529;-74
2021/11/02 17:07:51;;;;;;;34.22;21.60;;;8.40;99.90;;;;;;5023879;28;20061;-74
2021/11/02 17:10:24;;;;;;;36.22;27.33;;;8.30;99.90;;;;;;5000759;28;20052;-72
2021/11/02 17:12:57;;;;;;;18.35;12.75;;;8.30;99.90;;;;;;5026318;28;20119;-73
2021/11/02 17:15:30;;;;;;;7.03;4.05;;;8.20;99.90;;;;;;5040599;28;20057;-74
2021/11/02 17:17:59;;;;;;;7.32;4.47;;;8.20;99.90;;;;;;5026655;28;20087;-73
2021/11/02 17:20:27;;;;;;;7.18;4.30;;;8.10;99.90;;;;;;5008832;28;20056;-74
2021/11/02 17:22:54;;;;;;;6.05;3.83;;;8.00;99.90;;;;;;5025499;28;20045;-74
2021/11/02 17:25:22;;;;;;;4.75;3.50;;;8.00;99.90;;;;;;5025732;28;20053;-74
2021/11/02 17:27:51;;;;;;;36.65;22.92;;;7.90;99.90;;;;;;5026700;28;20297;-73
2021/11/02 17:30:20;;;;;;;6.88;4.50;;;7.80;99.90;;;;;;5024436;28;20046;-74
2021/11/02 17:32:48;;;;;;;8.25;6.60;;;7.90;99.90;;;;;;5024413;28;20083;-74
2021/11/02 17:35:16;;;;;;;14.82;9.60;;;7.90;99.90;;;;;;5023717;28;20053;-74
2021/11/02 17:37:49;;;;;;;11.52;9.93;;;7.90;99.90;;;;;;5025446;28;20115;-73
2021/11/02 17:40:18;;;;;;;9.27;6.25;;;7.90;99.90;;;;;;5025422;28;20102;-74
2021/11/02 17:42:47;;;;;;;14.25;10.60;;;7.90;99.90;;;;;;5041328;28;20374;-74
2021/11/02 17:45:14;;;;;;;13.40;9.15;;;8.00;99.90;;;;;;5006760;28;20412;-73
2021/11/02 17:47:55;;;;;;;30.10;18.98;;;8.00;99.90;;;;;;4988847;28;20061;-74
2021/11/02 17:50:25;;;;;;;12.05;8.73;;;8.00;99.90;;;;;;4990056;28;20057;-72
2021/11/02 17:52:54;;;;;;;7.20;5.22;;;8.00;99.90;;;;;;5025685;28;20119;-74
2021/11/02 17:55:21;;;;;;;5.78;4.88;;;7.90;99.90;;;;;;5019227;28;20152;-74
2021/11/02 17:57:51;;;;;;;7.72;6.55;;;7.90;99.90;;;;;;5025957;28;20054;-72
2021/11/02 18:00:20;;;;;;;9.43;5.63;;;7.90;99.90;;;;;;5024381;28;20057;-74
2021/11/02 18:02:53;;;;;;;8.68;4.13;;;8.10;99.90;;;;;;4987131;28;20493;-74
2021/11/02 18:05:26;;;;;;;8.13;3.07;;;7.90;99.90;;;;;;5008205;28;20137;-73